sensor_id;sensor_type;location;lat;lon;timestamp;P1;durP1;ratioP1;P2;durP2;ratioP2
24613;SDS011;12760;46.296;25.290;2023-03-31T00:00:50;3.60;;;3.30;;
24613;SDS011;12760;46.296;25.290;2023-03-31T00:03:17;1.93;;;1.93;;
24613;SDS011;12760;46.296;25.290;2023-03-31T00:05:53;4.40;;;4.13;;
24613;SDS011;12760;46.296;25.290;2023-03-31T00:08:20;4.13;;;4.03;;
24613;SDS011;12760;46.296;25.290;2023-03-31T00:10:46;14.73;;;8.30;;
24613;SDS011;12760;46.296;25.290;2023-03-31T00:13:12;3.63;;;3.50;;
24613;SDS011;12760;46.296;25.290;2023-03-31T00:15:38;3.93;;;3.73;;
24613;SDS011;12760;46.296;25.290;2023-03-31T00:18:04;5.37;;;4.77;;
24613;SDS011;12760;46.296;25.290;2023-03-31T00:20:30;6.53;;;6.03;;
24613;SDS011;12760;46.296;25.290;2023-03-31T00:22:57;5.13;;;4.80;;
24613;SDS011;12760;46.296;25.290;2023-03-31T00:25:25;20.83;;;9.20;;
24613;SDS011;12760;46.296;25.290;2023-03-31T00:27:51;13.50;;;11.03;;
24613;SDS011;12760;46.296;25.290;2023-03-31T00:30:17;25.00;;;15.70;;
24613;SDS011;12760;46.296;25.290;2023-03-31T00:32:43;10.77;;;8.83;;
24613;SDS011;12760;46.296;25.290;2023-03-31T00:35:08;5.03;;;4.67;;
24613;SDS011;12760;46.296;25.290;2023-03-31T00:37:34;7.43;;;6.67;;
24613;SDS011;12760;46.296;25.290;2023-03-31T00:40:00;6.83;;;4.53;;
24613;SDS011;12760;46.296;25.290;2023-03-31T00:42:26;3.00;;;2.90;;
24613;SDS011;12760;46.296;25.290;2023-03-31T00:47:49;4.13;;;3.83;;
24613;SDS011;12760;46.296;25.290;2023-03-31T00:50:34;2.67;;;2.57;;
24613;SDS011;12760;46.296;25.290;2023-03-31T00:53:07;2.70;;;2.60;;
24613;SDS011;12760;46.296;25.290;2023-03-31T00:55:41;2.70;;;2.60;;
24613;SDS011;12760;46.296;25.290;2023-03-31T00:58:13;2.70;;;2.60;;
24613;SDS011;12760;46.296;25.290;2023-03-31T01:00:44;1.87;;;1.87;;
24613;SDS011;12760;46.296;25.290;2023-03-31T01:03:15;1.63;;;1.63;;
24613;SDS011;12760;46.296;25.290;2023-03-31T01:05:46;2.70;;;2.60;;
24613;SDS011;12760;46.296;25.290;2023-03-31T01:08:17;2.00;;;2.00;;
24613;SDS011;12760;46.296;25.290;2023-03-31T01:10:49;2.30;;;2.20;;
24613;SDS011;12760;46.296;25.290;2023-03-31T01:13:17;3.03;;;2.93;;
24613;SDS011;12760;46.296;25.290;2023-03-31T01:15:44;2.47;;;2.40;;
24613;SDS011;12760;46.296;25.290;2023-03-31T01:18:10;1.50;;;1.50;;
24613;SDS011;12760;46.296;25.290;2023-03-31T01:27:05;4.93;;;4.47;;
24613;SDS011;12760;46.296;25.290;2023-03-31T01:30:11;2.30;;;2.30;;
24613;SDS011;12760;46.296;25.290;2023-03-31T01:42:19;2.20;;;2.20;;
24613;SDS011;12760;46.296;25.290;2023-03-31T01:53:33;2.80;;;2.70;;
24613;SDS011;12760;46.296;25.290;2023-03-31T01:59:07;3.57;;;3.47;;
24613;SDS011;12760;46.296;25.290;2023-03-31T02:01:48;1.77;;;1.77;;
24613;SDS011;12760;46.296;25.290;2023-03-31T02:04:27;2.80;;;2.70;;
24613;SDS011;12760;46.296;25.290;2023-03-31T02:06:58;1.60;;;1.60;;
24613;SDS011;12760;46.296;25.290;2023-03-31T02:09:30;2.93;;;2.83;;
24613;SDS011;12760;46.296;25.290;2023-03-31T02:12:01;3.50;;;3.33;;
24613;SDS011;12760;46.296;25.290;2023-03-31T02:14:31;1.93;;;1.93;;
24613;SDS011;12760;46.296;25.290;2023-03-31T02:16:59;3.10;;;2.90;;
24613;SDS011;12760;46.296;25.290;2023-03-31T02:19:32;2.00;;;2.00;;
24613;SDS011;12760;46.296;25.290;2023-03-31T02:22:03;1.93;;;1.93;;
24613;SDS011;12760;46.296;25.290;2023-03-31T02:24:31;1.97;;;1.97;;
24613;SDS011;12760;46.296;25.290;2023-03-31T02:27:09;4.30;;;3.00;;
24613;SDS011;12760;46.296;25.290;2023-03-31T02:29:41;1.83;;;1.83;;
24613;SDS011;12760;46.296;25.290;2023-03-31T02:32:10;2.20;;;2.20;;
24613;SDS011;12760;46.296;25.290;2023-03-31T02:34:49;2.43;;;2.37;;
24613;SDS011;12760;46.296;25.290;2023-03-31T02:37:14;2.60;;;2.50;;
24613;SDS011;12760;46.296;25.290;2023-03-31T02:39:41;2.27;;;2.20;;
24613;SDS011;12760;46.296;25.290;2023-03-31T02:42:09;1.90;;;1.83;;
24613;SDS011;12760;46.296;25.290;2023-03-31T02:44:36;11.73;;;3.40;;
24613;SDS011;12760;46.296;25.290;2023-03-31T02:47:03;1.67;;;1.67;;
24613;SDS011;12760;46.296;25.290;2023-03-31T02:49:32;2.43;;;2.33;;
24613;SDS011;12760;46.296;25.290;2023-03-31T03:00:05;2.27;;;2.23;;
24613;SDS011;12760;46.296;25.290;2023-03-31T03:02:58;1.50;;;1.50;;
24613;SDS011;12760;46.296;25.290;2023-03-31T03:05:47;1.97;;;1.97;;
24613;SDS011;12760;46.296;25.290;2023-03-31T03:12:28;3.37;;;3.20;;
24613;SDS011;12760;46.296;25.290;2023-03-31T03:19:52;2.10;;;2.10;;
24613;SDS011;12760;46.296;25.290;2023-03-31T03:22:19;2.87;;;2.77;;
24613;SDS011;12760;46.296;25.290;2023-03-31T03:24:46;3.67;;;3.47;;
24613;SDS011;12760;46.296;25.290;2023-03-31T03:27:12;4.20;;;4.03;;
24613;SDS011;12760;46.296;25.290;2023-03-31T03:29:37;2.43;;;2.37;;
24613;SDS011;12760;46.296;25.290;2023-03-31T03:32:03;2.97;;;2.77;;
24613;SDS011;12760;46.296;25.290;2023-03-31T03:34:29;1.93;;;1.87;;
24613;SDS011;12760;46.296;25.290;2023-03-31T03:36:55;2.60;;;2.50;;
24613;SDS011;12760;46.296;25.290;2023-03-31T03:39:20;3.63;;;3.53;;
24613;SDS011;12760;46.296;25.290;2023-03-31T03:41:46;2.67;;;2.63;;
24613;SDS011;12760;46.296;25.290;2023-03-31T03:44:12;2.97;;;2.87;;
24613;SDS011;12760;46.296;25.290;2023-03-31T03:46:38;1.47;;;1.47;;
24613;SDS011;12760;46.296;25.290;2023-03-31T03:49:03;4.67;;;4.20;;
24613;SDS011;12760;46.296;25.290;2023-03-31T03:51:29;3.53;;;3.23;;
24613;SDS011;12760;46.296;25.290;2023-03-31T03:53:55;2.17;;;2.17;;
24613;SDS011;12760;46.296;25.290;2023-03-31T03:56:20;2.17;;;2.07;;
24613;SDS011;12760;46.296;25.290;2023-03-31T03:58:46;2.40;;;2.40;;
24613;SDS011;12760;46.296;25.290;2023-03-31T04:01:12;2.80;;;2.70;;
24613;SDS011;12760;46.296;25.290;2023-03-31T04:03:38;2.20;;;2.17;;
24613;SDS011;12760;46.296;25.290;2023-03-31T04:06:04;2.83;;;2.63;;
24613;SDS011;12760;46.296;25.290;2023-03-31T04:08:30;4.13;;;3.93;;
24613;SDS011;12760;46.296;25.290;2023-03-31T04:10:56;3.60;;;3.40;;
24613;SDS011;12760;46.296;25.290;2023-03-31T04:13:21;1.97;;;1.97;;
24613;SDS011;12760;46.296;25.290;2023-03-31T04:15:47;4.60;;;4.30;;
24613;SDS011;12760;46.296;25.290;2023-03-31T04:18:13;2.57;;;2.47;;
24613;SDS011;12760;46.296;25.290;2023-03-31T04:20:51;3.20;;;3.10;;
24613;SDS011;12760;46.296;25.290;2023-03-31T04:23:31;2.83;;;2.63;;
24613;SDS011;12760;46.296;25.290;2023-03-31T04:25:58;4.33;;;4.03;;
24613;SDS011;12760;46.296;25.290;2023-03-31T04:28:24;2.93;;;2.80;;
24613;SDS011;12760;46.296;25.290;2023-03-31T04:30:53;2.33;;;2.27;;
24613;SDS011;12760;46.296;25.290;2023-03-31T04:33:19;3.17;;;2.97;;
24613;SDS011;12760;46.296;25.290;2023-03-31T04:35:45;2.30;;;2.30;;
24613;SDS011;12760;46.296;25.290;2023-03-31T04:38:17;3.27;;;3.07;;
24613;SDS011;12760;46.296;25.290;2023-03-31T04:40:47;2.27;;;2.20;;
24613;SDS011;12760;46.296;25.290;2023-03-31T04:43:14;2.00;;;2.00;;
24613;SDS011;12760;46.296;25.290;2023-03-31T04:45:41;4.03;;;3.83;;
24613;SDS011;12760;46.296;25.290;2023-03-31T04:48:07;3.03;;;2.80;;
24613;SDS011;12760;46.296;25.290;2023-03-31T04:50:33;2.07;;;2.07;;
24613;SDS011;12760;46.296;25.290;2023-03-31T04:52:59;2.83;;;2.73;;
24613;SDS011;12760;46.296;25.290;2023-03-31T04:55:25;3.07;;;2.97;;
24613;SDS011;12760;46.296;25.290;2023-03-31T04:57:51;2.17;;;2.17;;
24613;SDS011;12760;46.296;25.290;2023-03-31T05:00:17;3.03;;;2.93;;
24613;SDS011;12760;46.296;25.290;2023-03-31T05:02:44;4.57;;;4.37;;
24613;SDS011;12760;46.296;25.290;2023-03-31T05:05:09;2.93;;;2.80;;
24613;SDS011;12760;46.296;25.290;2023-03-31T05:07:36;4.27;;;4.07;;
24613;SDS011;12760;46.296;25.290;2023-03-31T05:10:02;3.00;;;2.90;;
24613;SDS011;12760;46.296;25.290;2023-03-31T05:12:28;4.47;;;4.37;;
24613;SDS011;12760;46.296;25.290;2023-03-31T05:14:54;3.90;;;3.70;;
24613;SDS011;12760;46.296;25.290;2023-03-31T05:17:19;3.97;;;3.87;;
24613;SDS011;12760;46.296;25.290;2023-03-31T05:19:46;4.10;;;3.80;;
24613;SDS011;12760;46.296;25.290;2023-03-31T05:22:11;19.93;;;7.43;;
24613;SDS011;12760;46.296;25.290;2023-03-31T05:24:37;5.97;;;5.57;;
24613;SDS011;12760;46.296;25.290;2023-03-31T05:27:03;5.60;;;5.10;;
24613;SDS011;12760;46.296;25.290;2023-03-31T05:29:28;2.83;;;2.73;;
24613;SDS011;12760;46.296;25.290;2023-03-31T05:31:55;5.37;;;4.90;;
24613;SDS011;12760;46.296;25.290;2023-03-31T05:34:20;6.77;;;6.33;;
24613;SDS011;12760;46.296;25.290;2023-03-31T05:36:46;4.50;;;4.33;;
24613;SDS011;12760;46.296;25.290;2023-03-31T05:39:14;4.53;;;4.23;;
24613;SDS011;12760;46.296;25.290;2023-03-31T05:41:40;4.97;;;4.67;;
24613;SDS011;12760;46.296;25.290;2023-03-31T05:44:05;7.20;;;6.63;;
24613;SDS011;12760;46.296;25.290;2023-03-31T05:46:31;3.03;;;2.93;;
24613;SDS011;12760;46.296;25.290;2023-03-31T05:48:57;3.77;;;3.63;;
24613;SDS011;12760;46.296;25.290;2023-03-31T05:51:23;3.83;;;3.73;;
24613;SDS011;12760;46.296;25.290;2023-03-31T05:53:50;2.70;;;2.60;;
24613;SDS011;12760;46.296;25.290;2023-03-31T05:56:15;4.93;;;4.60;;
24613;SDS011;12760;46.296;25.290;2023-03-31T05:58:41;27.43;;;11.47;;
24613;SDS011;12760;46.296;25.290;2023-03-31T06:01:10;7.40;;;6.87;;
24613;SDS011;12760;46.296;25.290;2023-03-31T06:03:39;5.80;;;5.43;;
24613;SDS011;12760;46.296;25.290;2023-03-31T06:06:06;7.17;;;6.50;;
24613;SDS011;12760;46.296;25.290;2023-03-31T06:08:33;2.87;;;2.77;;
24613;SDS011;12760;46.296;25.290;2023-03-31T06:10:59;9.40;;;6.47;;
24613;SDS011;12760;46.296;25.290;2023-03-31T06:13:33;11.13;;;8.40;;
24613;SDS011;12760;46.296;25.290;2023-03-31T06:15:59;11.47;;;10.50;;
24613;SDS011;12760;46.296;25.290;2023-03-31T06:18:26;14.17;;;12.70;;
24613;SDS011;12760;46.296;25.290;2023-03-31T06:20:54;9.47;;;8.73;;
24613;SDS011;12760;46.296;25.290;2023-03-31T06:23:20;6.47;;;5.87;;
24613;SDS011;12760;46.296;25.290;2023-03-31T06:25:46;4.60;;;4.40;;
24613;SDS011;12760;46.296;25.290;2023-03-31T06:28:12;7.00;;;6.43;;
24613;SDS011;12760;46.296;25.290;2023-03-31T06:30:38;5.23;;;4.93;;
24613;SDS011;12760;46.296;25.290;2023-03-31T06:33:04;4.90;;;4.67;;
24613;SDS011;12760;46.296;25.290;2023-03-31T06:35:30;6.63;;;5.50;;
24613;SDS011;12760;46.296;25.290;2023-03-31T06:37:56;4.53;;;4.23;;
24613;SDS011;12760;46.296;25.290;2023-03-31T06:40:22;4.90;;;4.70;;
24613;SDS011;12760;46.296;25.290;2023-03-31T06:42:48;5.63;;;5.43;;
24613;SDS011;12760;46.296;25.290;2023-03-31T06:45:14;6.23;;;5.93;;
24613;SDS011;12760;46.296;25.290;2023-03-31T06:47:39;8.60;;;7.60;;
24613;SDS011;12760;46.296;25.290;2023-03-31T06:50:06;8.07;;;5.87;;
24613;SDS011;12760;46.296;25.290;2023-03-31T06:52:33;4.23;;;3.97;;
24613;SDS011;12760;46.296;25.290;2023-03-31T06:54:58;8.77;;;5.37;;
24613;SDS011;12760;46.296;25.290;2023-03-31T06:57:25;5.70;;;5.33;;
24613;SDS011;12760;46.296;25.290;2023-03-31T06:59:51;6.00;;;5.50;;
24613;SDS011;12760;46.296;25.290;2023-03-31T07:02:17;4.33;;;4.07;;
24613;SDS011;12760;46.296;25.290;2023-03-31T07:04:43;3.87;;;3.67;;
24613;SDS011;12760;46.296;25.290;2023-03-31T07:07:09;10.07;;;9.37;;
24613;SDS011;12760;46.296;25.290;2023-03-31T07:09:35;6.50;;;6.13;;
24613;SDS011;12760;46.296;25.290;2023-03-31T07:12:01;19.03;;;9.23;;
24613;SDS011;12760;46.296;25.290;2023-03-31T07:14:29;10.27;;;9.57;;
24613;SDS011;12760;46.296;25.290;2023-03-31T07:16:55;8.87;;;8.10;;
24613;SDS011;12760;46.296;25.290;2023-03-31T07:19:21;7.63;;;7.20;;
24613;SDS011;12760;46.296;25.290;2023-03-31T07:21:47;6.70;;;6.17;;
24613;SDS011;12760;46.296;25.290;2023-03-31T07:24:13;6.97;;;6.40;;
24613;SDS011;12760;46.296;25.290;2023-03-31T07:26:39;5.20;;;4.90;;
24613;SDS011;12760;46.296;25.290;2023-03-31T07:29:05;6.53;;;4.27;;
24613;SDS011;12760;46.296;25.290;2023-03-31T07:31:31;5.43;;;4.93;;
24613;SDS011;12760;46.296;25.290;2023-03-31T07:33:57;5.07;;;4.77;;
24613;SDS011;12760;46.296;25.290;2023-03-31T07:36:22;4.70;;;4.50;;
24613;SDS011;12760;46.296;25.290;2023-03-31T07:38:48;6.70;;;6.40;;
24613;SDS011;12760;46.296;25.290;2023-03-31T07:41:15;8.07;;;7.50;;
24613;SDS011;12760;46.296;25.290;2023-03-31T07:43:43;4.63;;;4.17;;
24613;SDS011;12760;46.296;25.290;2023-03-31T07:46:13;6.33;;;5.47;;
24613;SDS011;12760;46.296;25.290;2023-03-31T07:48:44;5.10;;;4.70;;
24613;SDS011;12760;46.296;25.290;2023-03-31T07:51:12;4.90;;;4.60;;
24613;SDS011;12760;46.296;25.290;2023-03-31T07:53:39;4.77;;;4.57;;
24613;SDS011;12760;46.296;25.290;2023-03-31T07:56:04;3.17;;;3.07;;
24613;SDS011;12760;46.296;25.290;2023-03-31T07:58:30;4.77;;;4.57;;
24613;SDS011;12760;46.296;25.290;2023-03-31T08:00:56;5.10;;;4.80;;
24613;SDS011;12760;46.296;25.290;2023-03-31T08:03:22;4.17;;;4.00;;
24613;SDS011;12760;46.296;25.290;2023-03-31T08:05:50;4.33;;;4.13;;
24613;SDS011;12760;46.296;25.290;2023-03-31T08:08:16;7.30;;;5.33;;
24613;SDS011;12760;46.296;25.290;2023-03-31T08:10:42;5.47;;;5.20;;
24613;SDS011;12760;46.296;25.290;2023-03-31T08:13:08;5.73;;;5.33;;
24613;SDS011;12760;46.296;25.290;2023-03-31T08:15:33;3.20;;;3.10;;
24613;SDS011;12760;46.296;25.290;2023-03-31T08:17:59;2.70;;;2.60;;
24613;SDS011;12760;46.296;25.290;2023-03-31T08:20:25;3.67;;;3.50;;
24613;SDS011;12760;46.296;25.290;2023-03-31T08:22:51;6.43;;;4.57;;
24613;SDS011;12760;46.296;25.290;2023-03-31T08:25:16;4.63;;;4.23;;
24613;SDS011;12760;46.296;25.290;2023-03-31T08:27:42;1.90;;;1.90;;
24613;SDS011;12760;46.296;25.290;2023-03-31T08:30:09;3.20;;;3.10;;
24613;SDS011;12760;46.296;25.290;2023-03-31T08:32:35;4.13;;;3.97;;
24613;SDS011;12760;46.296;25.290;2023-03-31T08:35:01;3.30;;;3.20;;
24613;SDS011;12760;46.296;25.290;2023-03-31T08:37:27;3.97;;;3.77;;
24613;SDS011;12760;46.296;25.290;2023-03-31T08:39:53;3.40;;;3.27;;
24613;SDS011;12760;46.296;25.290;2023-03-31T08:42:39;5.53;;;5.17;;
24613;SDS011;12760;46.296;25.290;2023-03-31T08:50:51;3.73;;;3.53;;
24613;SDS011;12760;46.296;25.290;2023-03-31T08:54:04;4.27;;;3.97;;
24613;SDS011;12760;46.296;25.290;2023-03-31T08:56:35;4.37;;;4.17;;
24613;SDS011;12760;46.296;25.290;2023-03-31T08:59:06;3.87;;;3.63;;
24613;SDS011;12760;46.296;25.290;2023-03-31T09:05:13;3.80;;;3.70;;
24613;SDS011;12760;46.296;25.290;2023-03-31T09:12:56;3.13;;;3.03;;
24613;SDS011;12760;46.296;25.290;2023-03-31T09:15:27;5.47;;;5.07;;
24613;SDS011;12760;46.296;25.290;2023-03-31T09:17:54;3.33;;;3.20;;
24613;SDS011;12760;46.296;25.290;2023-03-31T09:20:30;3.07;;;2.97;;
24613;SDS011;12760;46.296;25.290;2023-03-31T09:25:45;3.77;;;3.27;;
24613;SDS011;12760;46.296;25.290;2023-03-31T09:28:17;2.13;;;2.03;;
24613;SDS011;12760;46.296;25.290;2023-03-31T09:30:46;5.93;;;5.03;;
24613;SDS011;12760;46.296;25.290;2023-03-31T09:33:23;3.77;;;3.67;;
24613;SDS011;12760;46.296;25.290;2023-03-31T09:35:56;5.50;;;5.17;;
24613;SDS011;12760;46.296;25.290;2023-03-31T09:38:25;3.10;;;3.00;;
24613;SDS011;12760;46.296;25.290;2023-03-31T09:40:58;5.87;;;5.57;;
24613;SDS011;12760;46.296;25.290;2023-03-31T09:43:27;4.60;;;4.40;;
24613;SDS011;12760;46.296;25.290;2023-03-31T09:45:54;5.23;;;5.03;;
24613;SDS011;12760;46.296;25.290;2023-03-31T09:48:22;7.43;;;6.37;;
24613;SDS011;12760;46.296;25.290;2023-03-31T09:50:57;7.47;;;7.17;;
24613;SDS011;12760;46.296;25.290;2023-03-31T09:54:09;10.37;;;7.10;;
24613;SDS011;12760;46.296;25.290;2023-03-31T09:56:34;9.43;;;8.50;;
24613;SDS011;12760;46.296;25.290;2023-03-31T09:59:11;6.73;;;6.03;;
24613;SDS011;12760;46.296;25.290;2023-03-31T10:01:43;4.70;;;4.30;;
24613;SDS011;12760;46.296;25.290;2023-03-31T10:04:13;5.37;;;5.10;;
24613;SDS011;12760;46.296;25.290;2023-03-31T10:06:44;4.63;;;4.43;;
24613;SDS011;12760;46.296;25.290;2023-03-31T10:09:11;9.80;;;9.30;;
24613;SDS011;12760;46.296;25.290;2023-03-31T10:11:37;7.57;;;6.67;;
24613;SDS011;12760;46.296;25.290;2023-03-31T10:14:11;14.80;;;11.70;;
24613;SDS011;12760;46.296;25.290;2023-03-31T10:16:55;8.83;;;8.20;;
24613;SDS011;12760;46.296;25.290;2023-03-31T10:19:25;8.43;;;7.80;;
24613;SDS011;12760;46.296;25.290;2023-03-31T10:21:57;12.80;;;11.57;;
24613;SDS011;12760;46.296;25.290;2023-03-31T10:24:46;9.97;;;9.27;;
24613;SDS011;12760;46.296;25.290;2023-03-31T10:27:17;10.90;;;9.77;;
24613;SDS011;12760;46.296;25.290;2023-03-31T10:29:50;8.30;;;7.47;;
24613;SDS011;12760;46.296;25.290;2023-03-31T10:32:39;7.07;;;6.50;;
24613;SDS011;12760;46.296;25.290;2023-03-31T10:35:26;6.90;;;6.33;;
24613;SDS011;12760;46.296;25.290;2023-03-31T10:37:57;8.63;;;7.93;;
24613;SDS011;12760;46.296;25.290;2023-03-31T10:40:27;10.13;;;9.33;;
24613;SDS011;12760;46.296;25.290;2023-03-31T10:43:12;6.87;;;6.40;;
24613;SDS011;12760;46.296;25.290;2023-03-31T10:45:50;11.73;;;10.87;;
24613;SDS011;12760;46.296;25.290;2023-03-31T10:50:59;8.73;;;7.90;;
24613;SDS011;12760;46.296;25.290;2023-03-31T10:53:46;6.23;;;5.90;;
24613;SDS011;12760;46.296;25.290;2023-03-31T10:56:16;5.83;;;5.60;;
24613;SDS011;12760;46.296;25.290;2023-03-31T10:59:11;6.00;;;5.70;;
24613;SDS011;12760;46.296;25.290;2023-03-31T11:29:13;8.67;;;8.10;;
24613;SDS011;12760;46.296;25.290;2023-03-31T11:34:51;7.77;;;6.77;;
24613;SDS011;12760;46.296;25.290;2023-03-31T11:43:05;4.97;;;4.60;;
24613;SDS011;12760;46.296;25.290;2023-03-31T11:48:44;5.80;;;5.53;;
24613;SDS011;12760;46.296;25.290;2023-03-31T11:51:25;5.80;;;5.40;;
24613;SDS011;12760;46.296;25.290;2023-03-31T11:54:08;4.20;;;3.83;;
24613;SDS011;12760;46.296;25.290;2023-03-31T11:56:59;6.60;;;5.00;;
24613;SDS011;12760;46.296;25.290;2023-03-31T11:59:29;3.27;;;3.17;;
24613;SDS011;12760;46.296;25.290;2023-03-31T12:02:00;4.00;;;3.80;;
24613;SDS011;12760;46.296;25.290;2023-03-31T12:04:49;5.77;;;5.47;;
24613;SDS011;12760;46.296;25.290;2023-03-31T12:12:32;4.47;;;3.30;;
24613;SDS011;12760;46.296;25.290;2023-03-31T12:15:12;2.53;;;2.43;;
24613;SDS011;12760;46.296;25.290;2023-03-31T12:18:02;2.67;;;2.57;;
24613;SDS011;12760;46.296;25.290;2023-03-31T12:20:54;4.17;;;3.67;;
24613;SDS011;12760;46.296;25.290;2023-03-31T12:23:26;4.50;;;4.10;;
24613;SDS011;12760;46.296;25.290;2023-03-31T12:26:03;7.13;;;6.63;;
24613;SDS011;12760;46.296;25.290;2023-03-31T12:28:31;3.20;;;3.00;;
24613;SDS011;12760;46.296;25.290;2023-03-31T12:31:01;3.60;;;3.47;;
24613;SDS011;12760;46.296;25.290;2023-03-31T12:33:30;3.23;;;3.13;;
24613;SDS011;12760;46.296;25.290;2023-03-31T12:38:49;1.43;;;1.43;;
24613;SDS011;12760;46.296;25.290;2023-03-31T12:52:05;3.55;;;3.35;;
24613;SDS011;12760;46.296;25.290;2023-03-31T12:57:21;1.95;;;1.88;;
24613;SDS011;12760;46.296;25.290;2023-03-31T13:02:35;4.63;;;4.35;;
24613;SDS011;12760;46.296;25.290;2023-03-31T13:08:05;9.48;;;5.75;;
24613;SDS011;12760;46.296;25.290;2023-03-31T13:10:32;3.22;;;2.95;;
24613;SDS011;12760;46.296;25.290;2023-03-31T13:13:18;15.82;;;3.47;;
24613;SDS011;12760;46.296;25.290;2023-03-31T13:15:55;10.18;;;4.10;;
24613;SDS011;12760;46.296;25.290;2023-03-31T13:18:21;3.25;;;3.08;;
24613;SDS011;12760;46.296;25.290;2023-03-31T13:21:02;2.78;;;2.67;;
24613;SDS011;12760;46.296;25.290;2023-03-31T13:23:37;2.10;;;2.10;;
24613;SDS011;12760;46.296;25.290;2023-03-31T13:34:26;6.32;;;6.00;;
24613;SDS011;12760;46.296;25.290;2023-03-31T13:51:18;2.20;;;2.10;;
24613;SDS011;12760;46.296;25.290;2023-03-31T13:54:20;3.53;;;3.33;;
24613;SDS011;12760;46.296;25.290;2023-03-31T13:57:07;2.97;;;2.88;;
24613;SDS011;12760;46.296;25.290;2023-03-31T13:59:51;3.53;;;3.33;;
24613;SDS011;12760;46.296;25.290;2023-03-31T14:02:31;5.55;;;5.03;;
24613;SDS011;12760;46.296;25.290;2023-03-31T14:05:23;5.38;;;4.75;;
24613;SDS011;12760;46.296;25.290;2023-03-31T14:07:58;2.60;;;2.50;;
24613;SDS011;12760;46.296;25.290;2023-03-31T14:10:39;4.63;;;3.70;;
24613;SDS011;12760;46.296;25.290;2023-03-31T14:13:13;3.05;;;2.90;;
24613;SDS011;12760;46.296;25.290;2023-03-31T14:15:51;2.00;;;2.00;;
24613;SDS011;12760;46.296;25.290;2023-03-31T14:18:32;3.45;;;3.25;;
24613;SDS011;12760;46.296;25.290;2023-03-31T14:34:48;5.53;;;2.60;;
24613;SDS011;12760;46.296;25.290;2023-03-31T14:37:37;3.97;;;3.78;;
24613;SDS011;12760;46.296;25.290;2023-03-31T14:40:04;3.22;;;3.10;;
24613;SDS011;12760;46.296;25.290;2023-03-31T14:42:36;3.28;;;3.17;;
24613;SDS011;12760;46.296;25.290;2023-03-31T14:45:05;3.42;;;3.22;;
24613;SDS011;12760;46.296;25.290;2023-03-31T14:47:40;2.25;;;2.15;;
24613;SDS011;12760;46.296;25.290;2023-03-31T14:50:14;3.03;;;2.83;;
24613;SDS011;12760;46.296;25.290;2023-03-31T14:52:48;8.02;;;4.95;;
24613;SDS011;12760;46.296;25.290;2023-03-31T14:55:16;2.47;;;2.38;;
24613;SDS011;12760;46.296;25.290;2023-03-31T14:57:46;2.60;;;2.40;;
24613;SDS011;12760;46.296;25.290;2023-03-31T15:00:15;1.83;;;1.83;;
24613;SDS011;12760;46.296;25.290;2023-03-31T15:03:04;6.40;;;5.88;;
24613;SDS011;12760;46.296;25.290;2023-03-31T15:05:34;3.15;;;2.95;;
24613;SDS011;12760;46.296;25.290;2023-03-31T15:08:02;11.90;;;4.03;;
24613;SDS011;12760;46.296;25.290;2023-03-31T15:10:41;2.95;;;2.75;;
24613;SDS011;12760;46.296;25.290;2023-03-31T15:13:21;2.97;;;2.88;;
24613;SDS011;12760;46.296;25.290;2023-03-31T15:15:56;3.90;;;3.70;;
24613;SDS011;12760;46.296;25.290;2023-03-31T15:18:24;2.20;;;2.10;;
24613;SDS011;12760;46.296;25.290;2023-03-31T15:20:51;4.03;;;3.45;;
24613;SDS011;12760;46.296;25.290;2023-03-31T15:23:23;2.28;;;2.10;;
24613;SDS011;12760;46.296;25.290;2023-03-31T15:26:13;5.75;;;4.65;;
24613;SDS011;12760;46.296;25.290;2023-03-31T15:29:02;2.40;;;2.30;;
24613;SDS011;12760;46.296;25.290;2023-03-31T15:31:28;2.28;;;2.17;;
24613;SDS011;12760;46.296;25.290;2023-03-31T15:33:54;8.18;;;3.33;;
24613;SDS011;12760;46.296;25.290;2023-03-31T15:36:20;3.40;;;3.05;;
24613;SDS011;12760;46.296;25.290;2023-03-31T15:38:52;4.35;;;4.15;;
24613;SDS011;12760;46.296;25.290;2023-03-31T15:41:21;1.90;;;1.88;;
24613;SDS011;12760;46.296;25.290;2023-03-31T15:43:48;2.35;;;2.25;;
24613;SDS011;12760;46.296;25.290;2023-03-31T15:46:48;1.50;;;1.50;;
24613;SDS011;12760;46.296;25.290;2023-03-31T15:49:20;1.33;;;1.33;;
24613;SDS011;12760;46.296;25.290;2023-03-31T15:51:48;2.45;;;2.33;;
24613;SDS011;12760;46.296;25.290;2023-03-31T15:54:28;1.90;;;1.83;;
24613;SDS011;12760;46.296;25.290;2023-03-31T15:57:03;2.47;;;2.38;;
24613;SDS011;12760;46.296;25.290;2023-03-31T15:59:30;6.40;;;3.28;;
24613;SDS011;12760;46.296;25.290;2023-03-31T16:02:12;1.90;;;1.90;;
24613;SDS011;12760;46.296;25.290;2023-03-31T16:04:46;6.45;;;5.80;;
24613;SDS011;12760;46.296;25.290;2023-03-31T16:07:19;3.15;;;2.05;;
24613;SDS011;12760;46.296;25.290;2023-03-31T16:09:56;1.55;;;1.55;;
24613;SDS011;12760;46.296;25.290;2023-03-31T16:12:47;1.48;;;1.48;;
24613;SDS011;12760;46.296;25.290;2023-03-31T16:15:20;2.05;;;2.00;;
24613;SDS011;12760;46.296;25.290;2023-03-31T16:17:55;6.07;;;3.55;;
24613;SDS011;12760;46.296;25.290;2023-03-31T16:20:27;5.75;;;3.83;;
24613;SDS011;12760;46.296;25.290;2023-03-31T16:22:57;2.92;;;2.83;;
24613;SDS011;12760;46.296;25.290;2023-03-31T16:25:25;2.88;;;2.60;;
24613;SDS011;12760;46.296;25.290;2023-03-31T16:27:53;5.80;;;5.35;;
24613;SDS011;12760;46.296;25.290;2023-03-31T16:30:32;1.73;;;1.65;;
24613;SDS011;12760;46.296;25.290;2023-03-31T16:33:02;3.80;;;3.55;;
24613;SDS011;12760;46.296;25.290;2023-03-31T16:35:29;3.15;;;3.05;;
24613;SDS011;12760;46.296;25.290;2023-03-31T16:37:56;2.63;;;2.50;;
24613;SDS011;12760;46.296;25.290;2023-03-31T16:40:22;3.15;;;2.85;;
24613;SDS011;12760;46.296;25.290;2023-03-31T16:42:48;2.92;;;2.72;;
24613;SDS011;12760;46.296;25.290;2023-03-31T16:45:30;2.70;;;2.58;;
24613;SDS011;12760;46.296;25.290;2023-03-31T16:47:55;2.20;;;2.13;;
24613;SDS011;12760;46.296;25.290;2023-03-31T16:50:21;3.00;;;2.83;;
24613;SDS011;12760;46.296;25.290;2023-03-31T16:52:46;1.88;;;1.88;;
24613;SDS011;12760;46.296;25.290;2023-03-31T16:55:12;2.17;;;2.15;;
24613;SDS011;12760;46.296;25.290;2023-03-31T16:57:38;1.90;;;1.85;;
24613;SDS011;12760;46.296;25.290;2023-03-31T17:00:04;3.17;;;2.97;;
24613;SDS011;12760;46.296;25.290;2023-03-31T17:02:30;3.80;;;3.60;;
24613;SDS011;12760;46.296;25.290;2023-03-31T17:04:56;5.32;;;4.93;;
24613;SDS011;12760;46.296;25.290;2023-03-31T17:07:21;4.13;;;3.92;;
24613;SDS011;12760;46.296;25.290;2023-03-31T17:09:47;7.80;;;3.83;;
24613;SDS011;12760;46.296;25.290;2023-03-31T17:12:13;4.28;;;4.10;;
24613;SDS011;12760;46.296;25.290;2023-03-31T17:14:38;13.82;;;7.93;;
24613;SDS011;12760;46.296;25.290;2023-03-31T17:17:04;4.28;;;3.97;;
24613;SDS011;12760;46.296;25.290;2023-03-31T17:19:30;5.65;;;5.28;;
24613;SDS011;12760;46.296;25.290;2023-03-31T17:21:56;3.55;;;3.25;;
24613;SDS011;12760;46.296;25.290;2023-03-31T17:24:25;5.80;;;5.47;;
24613;SDS011;12760;46.296;25.290;2023-03-31T17:26:51;7.20;;;5.35;;
24613;SDS011;12760;46.296;25.290;2023-03-31T17:29:17;5.88;;;5.57;;
24613;SDS011;12760;46.296;25.290;2023-03-31T17:31:43;6.20;;;5.13;;
24613;SDS011;12760;46.296;25.290;2023-03-31T17:34:09;11.52;;;8.30;;
24613;SDS011;12760;46.296;25.290;2023-03-31T17:36:35;4.97;;;4.65;;
24613;SDS011;12760;46.296;25.290;2023-03-31T17:39:01;6.60;;;4.72;;
24613;SDS011;12760;46.296;25.290;2023-03-31T17:41:29;6.97;;;6.50;;
24613;SDS011;12760;46.296;25.290;2023-03-31T17:43:55;5.30;;;5.00;;